Time;durP1;ratioP1;P1;durP2;ratioP2;P2;SDS_P1;SDS_P2;PMS_P1;PMS_P2;Temp;Humidity;BMP_temperature;BMP_pressure;BME280_temperature;BME280_humidity;BME280_pressure;Samples;Min_cycle;Max_cycle;Signal;HPM_P1;HPM_P2
2023/06/07 06:57:24;;;;;;;7.82;3.25;;;;;;;21.17;39.71;99905.63;6176535;22;20028;-87
2023/06/07 06:59:50;;;;;;;13.07;3.08;;;;;;;21.05;39.87;99876.03;6141389;23;20064;-89
2023/06/07 07:02:16;;;;;;;14.90;3.75;;;;;;;21.26;39.91;99899.84;6190422;23;20039;-89
2023/06/07 07:04:43;;;;;;;7.25;3.05;;;;;;;21.24;38.77;99910.53;6191977;23;20040;-89
2023/06/07 07:07:10;;;;;;;51.50;4.78;;;;;;;21.24;39.70;99907.75;6192086;23;20017;-89
2023/06/07 07:09:36;;;;;;;16.60;2.80;;;;;;;21.32;39.92;99910.28;6194221;23;20470;-88
2023/06/07 07:12:06;;;;;;;10.68;3.50;;;;;;;21.20;39.17;99892.97;6168082;23;20081;-89
2023/06/07 07:14:32;;;;;;;7.40;2.88;;;;;;;21.45;38.81;99924.03;6174510;23;20024;-89
2023/06/07 07:16:58;;;;;;;6.30;2.85;;;;;;;21.13;39.38;99873.41;6126749;23;20041;-88
2023/06/07 07:19:24;;;;;;;18.75;3.42;;;;;;;21.47;41.46;99888.31;6150105;23;20017;-85
2023/06/07 07:21:52;;;;;;;11.48;3.35;;;;;;;21.82;40.60;99865.78;6200972;23;20021;-91
2023/06/07 07:24:18;;;;;;;11.30;3.20;;;;;;;22.26;41.22;99891.09;6157129;23;20032;-91
2023/06/07 07:26:46;;;;;;;24.50;3.35;;;;;;;22.55;37.86;99899.00;6203406;23;20075;-86
2023/06/07 07:29:12;;;;;;;15.00;3.80;;;;;;;22.49;38.55;99904.13;6194438;23;20017;-89
2023/06/07 07:31:39;;;;;;;15.13;2.70;;;;;;;22.43;37.12;99869.41;6147694;23;20621;-87
2023/06/07 07:34:05;;;;;;;10.13;3.08;;;;;;;22.68;37.19;99886.41;6200149;23;20256;-88
2023/06/07 07:36:33;;;;;;;12.10;3.10;;;;;;;23.11;38.71;99909.19;6193835;23;20017;-89
2023/06/07 07:39:04;;;;;;;13.65;2.92;;;;;;;22.68;38.55;99851.00;6123719;23;20104;-88
2023/06/07 07:41:36;;;;;;;8.85;2.95;;;;;;;22.74;36.69;99913.56;6175535;23;20036;-90
2023/06/07 07:44:06;;;;;;;18.33;3.50;;;;;;;22.50;38.08;99869.50;6153609;23;20021;-87
2023/06/07 07:46:36;;;;;;;10.50;2.75;;;;;;;22.86;38.69;99878.25;6180635;23;20028;-88
2023/06/07 07:49:05;;;;;;;12.38;3.42;;;;;;;23.12;37.13;99872.56;6148929;23;20017;-87
2023/06/07 07:51:31;;;;;;;6.07;2.95;;;;;;;23.37;37.82;99883.94;6142778;23;20045;-87
2023/06/07 07:53:57;;;;;;;19.02;3.53;;;;;;;23.31;36.33;99870.72;6191020;23;20017;-87
2023/06/07 07:56:24;;;;;;;13.63;3.58;;;;;;;23.54;34.96;99885.28;6189720;23;20028;-87
2023/06/07 07:58:51;;;;;;;6.30;3.25;;;;;;;23.21;35.97;99861.91;6164987;23;20048;-88
2023/06/07 08:01:22;;;;;;;12.55;3.30;;;;;;;23.48;36.63;99881.25;6194130;23;20025;-86
2023/06/07 08:03:48;;;;;;;8.60;3.15;;;;;;;23.84;36.35;99867.56;6163773;23;20053;-86
2023/06/07 08:06:15;;;;;;;7.43;3.08;;;;;;;24.24;34.88;99888.13;6191918;23;20016;-88
2023/06/07 08:08:41;;;;;;;5.30;2.65;;;;;;;24.10;34.93;99886.88;6197553;23;20429;-88
2023/06/07 08:11:08;;;;;;;7.28;3.20;;;;;;;23.81;33.40;99868.38;6167391;23;20021;-88
2023/06/07 08:13:34;;;;;;;20.35;3.63;;;;;;;24.04;33.50;99891.25;6197124;23;20021;-88
2023/06/07 08:16:01;;;;;;;5.47;3.50;;;;;;;23.83;34.78;99852.00;6190761;23;20023;-90
2023/06/07 08:18:27;;;;;;;12.38;3.70;;;;;;;23.85;34.70;99856.00;6167241;23;20482;-90
2023/06/07 08:20:54;;;;;;;12.82;3.75;;;;;;;24.03;34.28;99891.63;6190907;23;20016;-90
2023/06/07 08:23:20;;;;;;;5.55;2.95;;;;;;;23.88;34.24;99876.78;6135714;23;20527;-87
2023/06/07 08:25:46;;;;;;;13.55;3.38;;;;;;;24.28;33.85;99869.41;6180872;23;20028;-86
2023/06/07 08:28:12;;;;;;;7.40;3.50;;;;;;;24.41;33.76;99876.28;6193438;23;20016;-87
2023/06/07 08:30:41;;;;;;;7.85;2.88;;;;;;;24.40;34.05;99871.84;6196741;23;20104;-90
2023/06/07 08:33:08;;;;;;;11.55;3.30;;;;;;;24.26;33.95;99863.41;6168813;23;20021;-89
2023/06/07 08:35:34;;;;;;;7.50;3.65;;;;;;;23.97;33.61;99877.22;6163875;23;20103;-87
2023/06/07 08:38:00;;;;;;;7.32;3.38;;;;;;;23.79;34.51;99859.56;6186687;23;20161;-88
2023/06/07 08:40:27;;;;;;;10.88;3.30;;;;;;;23.85;33.34;99880.34;6187430;23;20021;-86
2023/06/07 08:42:53;;;;;;;10.38;3.47;;;;;;;23.51;33.57;99872.13;6190792;23;20021;-87
2023/06/07 08:45:20;;;;;;;7.10;3.30;;;;;;;23.72;34.93;99865.09;6187548;23;20040;-87
2023/06/07 08:47:46;;;;;;;4.82;3.10;;;;;;;23.73;34.96;99866.69;6163322;23;20021;-87
2023/06/07 08:50:13;;;;;;;10.35;2.90;;;;;;;23.74;31.65;99837.59;6190654;23;20027;-87
2023/06/07 08:52:41;;;;;;;15.60;2.92;;;;;;;23.50;34.03;99848.16;6186643;23;20120;-92
2023/06/07 08:55:12;;;;;;;7.07;3.75;;;;;;;23.44;33.36;99811.47;6163607;23;20020;-89
2023/06/07 08:57:39;;;;;;;10.57;3.40;;;;;;;23.89;33.45;99856.03;6186794;23;20021;-89
2023/06/07 09:00:08;;;;;;;10.48;3.28;;;;;;;23.96;32.86;99833.72;6191782;23;20016;-87
2023/06/07 09:02:37;;;;;;;6.35;2.92;;;;;;;24.14;33.72;99822.66;6202247;23;20040;-89
2023/06/07 09:05:09;;;;;;;7.78;3.60;;;;;;;24.47;31.00;99826.38;6200231;23;20024;-88
2023/06/07 09:07:51;;;;;;;13.93;3.97;;;;;;;24.45;33.06;99790.44;6192209;23;20477;-88
2023/06/07 09:10:41;;;;;;;15.27;3.20;;;;;;;24.29;31.95;99776.00;6194788;23;20016;-89
2023/06/07 09:13:10;;;;;;;11.95;3.45;;;;;;;24.56;32.00;99784.88;6193631;23;20024;-90
2023/06/07 09:15:41;;;;;;;7.88;3.28;;;;;;;25.06;32.18;99840.88;6172819;23;20075;-88
2023/06/07 09:18:07;;;;;;;26.35;3.83;;;;;;;24.67;31.51;99804.47;6191252;23;20051;-89
2023/06/07 09:20:33;;;;;;;19.33;3.30;;;;;;;24.63;32.57;99795.28;6168450;23;20075;-88
2023/06/07 09:23:03;;;;;;;22.33;4.03;;;;;;;24.91;32.15;99823.28;6141914;23;20047;-88
2023/06/07 09:25:31;;;;;;;7.47;3.15;;;;;;;24.78;32.25;99775.34;6191308;23;20028;-87
2023/06/07 09:27:57;;;;;;;9.07;3.22;;;;;;;24.99;30.90;99833.28;6192019;23;20124;-87
2023/06/07 09:30:23;;;;;;;5.93;2.80;;;;;;;24.97;32.22;99818.91;6165389;23;20494;-87
2023/06/07 09:32:50;;;;;;;;;;;;;;;25.16;32.84;99833.72;6188997;23;20036;-86
2023/06/07 09:35:21;;;;;;;7.30;3.08;;;;;;;25.04;32.08;99796.53;6192920;23;19916;-89
2023/06/07 09:37:54;;;;;;;6.47;2.80;;;;;;;25.10;32.22;99791.34;6196852;23;20020;-89
2023/06/07 09:40:23;;;;;;;8.32;3.08;;;;;;;25.08;30.85;99808.50;6149698;23;20047;-88
2023/06/07 09:42:59;;;;;;;12.20;3.30;;;;;;;24.97;31.50;99782.53;6148376;23;20313;-90
2023/06/07 09:45:29;;;;;;;10.20;3.28;;;;;;;25.29;31.22;99795.75;6167809;23;20027;-87
2023/06/07 09:48:09;;;;;;;9.13;2.67;;;;;;;25.14;31.46;99794.16;6194010;23;20017;-89
2023/06/07 09:50:35;;;;;;;9.00;3.80;;;;;;;24.93;29.86;99794.91;6202264;23;20025;-90
2023/06/07 09:53:03;;;;;;;6.32;3.30;;;;;;;25.14;30.40;99814.53;6169356;23;20103;-89
2023/06/07 09:55:29;;;;;;;20.75;3.78;;;;;;;25.18;30.97;99786.56;6146985;23;20043;-87
2023/06/07 09:57:56;;;;;;;4.75;2.80;;;;;;;25.40;30.41;99804.16;6197832;23;20025;-87
2023/06/07 10:00:25;;;;;;;7.13;3.25;;;;;;;25.27;30.86;99798.16;6194760;23;20043;-88
2023/06/07 10:03:05;;;;;;;6.60;3.22;;;;;;;25.27;30.59;99751.38;6195858;23;20053;-86
2023/06/07 10:05:31;;;;;;;9.15;3.35;;;;;;;25.31;30.47;99731.78;6121599;23;20473;-86
2023/06/07 10:07:59;;;;;;;7.00;2.90;;;;;;;25.50;31.14;99747.34;6191733;23;20104;-85
2023/06/07 10:10:27;;;;;;;18.27;2.95;;;;;;;25.69;30.58;99788.88;6191494;23;20024;-87
2023/06/07 10:12:54;;;;;;;7.25;3.35;;;;;;;25.15;29.98;99746.19;6190746;23;20487;-89
2023/06/07 10:15:24;;;;;;;10.88;3.33;;;;;;;25.00;31.44;99739.78;6196648;23;20013;-88
2023/06/07 10:18:22;;;;;;;18.30;4.15;;;;;;;25.18;30.42;99792.16;6203741;23;20115;-88
2023/06/07 10:21:17;;;;;;;16.10;3.60;;;;;;;24.80;30.09;99772.94;6200703;23;20025;-90
2023/06/07 10:23:53;;;;;;;9.13;3.42;;;;;;;24.99;29.28;99760.56;6143948;23;20073;-87
2023/06/07 10:26:42;;;;;;;8.00;3.38;;;;;;;25.07;30.26;99742.56;6196891;23;20017;-88
2023/06/07 10:29:17;;;;;;;9.45;3.10;;;;;;;25.63;30.73;99770.06;6188574;23;20028;-86
2023/06/07 10:32:07;;;;;;;11.18;3.30;;;;;;;25.26;29.74;99738.56;6189312;23;20061;-89
2023/06/07 10:34:36;;;;;;;11.73;3.30;;;;;;;25.56;30.26;99734.50;6187706;23;20013;-86
2023/06/07 10:37:07;;;;;;;35.05;3.47;;;;;;;25.70;29.95;99728.09;6187817;23;20027;-87
2023/06/07 10:39:38;;;;;;;9.48;3.15;;;;;;;25.74;29.84;99734.47;6189630;23;20024;-88
2023/06/07 10:42:06;;;;;;;13.40;3.30;;;;;;;25.82;28.83;99741.66;6195947;23;20017;-86
2023/06/07 10:44:33;;;;;;;6.53;3.03;;;;;;;25.59;28.52;99721.69;6196221;23;20028;-87
2023/06/07 10:47:38;;;;;;;12.25;3.55;;;;;;;25.73;28.98;99730.88;6171971;23;20371;-87
2023/06/07 10:50:05;;;;;;;14.00;3.40;;;;;;;25.62;29.59;99729.28;6106919;23;20056;-87
2023/06/07 10:52:59;;;;;;;12.00;3.38;;;;;;;25.57;27.68;99718.53;6068931;23;20269;-87
2023/06/07 10:55:32;;;;;;;14.52;3.42;;;;;;;25.84;29.98;99730.06;6162533;23;20485;-88
2023/06/07 10:58:02;;;;;;;9.40;3.60;;;;;;;25.96;29.75;99763.19;6166303;23;20033;-88
2023/06/07 11:00:38;;;;;;;16.40;3.65;;;;;;;25.97;27.47;99740.41;6168166;23;20024;-86
2023/06/07 11:03:12;;;;;;;12.75;3.50;;;;;;;25.98;28.97;99741.97;6192579;23;20024;-87
2023/06/07 11:05:53;;;;;;;19.73;4.40;;;;;;;26.04;29.34;99741.56;6187624;23;20024;-89
2023/06/07 11:08:39;;;;;;;20.70;3.92;;;;;;;25.30;27.91;99671.44;6188021;23;20055;-87
2023/06/07 11:11:51;;;;;;;45.55;4.47;;;;;;;25.92;29.50;99707.19;6186356;23;20021;-87
2023/06/07 11:14:18;;;;;;;8.38;3.10;;;;;;;25.78;29.63;99727.63;6182825;23;20024;-89
2023/06/07 11:16:44;;;;;;;;;;;;;;;25.73;27.52;99718.88;6184291;23;20019;-86
2023/06/07 11:19:12;;;;;;;;;;;;;;;25.83;29.65;99725.63;6185327;23;20401;-85
2023/06/07 11:21:55;;;;;;;9.13;3.38;;;;;;;25.70;29.29;99720.47;6182802;23;19932;-87
2023/06/07 11:24:22;;;;;;;45.58;5.75;;;;;;;25.89;29.63;99712.81;6184127;23;20078;-88
2023/06/07 11:26:50;;;;;;;18.48;5.35;;;;;;;26.13;28.10;99728.72;6188200;23;20032;-89
2023/06/07 11:29:17;;;;;;;25.23;4.22;;;;;;;25.98;27.29;99708.38;6185170;23;20017;-86
2023/06/07 11:31:46;;;;;;;22.17;6.78;;;;;;;26.07;28.80;99709.94;6191429;23;20021;-88
2023/06/07 11:34:14;;;;;;;25.05;5.38;;;;;;;25.96;27.15;99681.97;6164398;23;20016;-87
2023/06/07 11:36:43;;;;;;;27.00;6.90;;;;;;;26.34;29.24;99705.34;6183596;23;20367;-89
2023/06/07 11:39:09;;;;;;;18.60;6.15;;;;;;;26.69;29.13;99706.34;6186355;23;20021;-87
2023/06/07 11:41:37;;;;;;;19.80;4.95;;;;;;;26.84;27.67;99685.38;6195344;23;20047;-87
2023/06/07 11:44:06;;;;;;;20.73;4.63;;;;;;;26.56;28.10;99646.38;6189198;23;20023;-86
2023/06/07 11:46:33;;;;;;;18.38;3.55;;;;;;;26.37;27.20;99642.88;6168624;23;20374;-88
2023/06/07 11:49:03;;;;;;;8.05;3.65;;;;;;;26.69;26.52;99655.88;6190293;23;20029;-88
2023/06/07 11:51:30;;;;;;;13.75;4.03;;;;;;;26.62;27.17;99653.09;6185109;23;20066;-89
2023/06/07 11:53:59;;;;;;;15.98;4.50;;;;;;;26.72;26.66;99646.59;6188096;23;20021;-89
2023/06/07 11:56:27;;;;;;;8.77;3.92;;;;;;;26.58;27.62;99666.38;6188466;23;20016;-89
2023/06/07 11:58:58;;;;;;;11.18;3.53;;;;;;;26.69;26.06;99675.50;6193146;23;20514;-86
2023/06/07 12:01:25;;;;;;;19.02;3.45;;;;;;;26.06;27.46;99649.50;6165108;23;20466;-86
2023/06/07 12:03:52;;;;;;;15.95;3.45;;;;;;;25.82;27.70;99642.84;6193387;23;20020;-88
2023/06/07 12:06:19;;;;;;;8.10;3.47;;;;;;;25.70;27.71;99639.28;6192060;23;20017;-87
2023/06/07 12:08:52;;;;;;;27.50;3.88;;;;;;;25.77;26.91;99666.44;6188299;23;20048;-85
2023/06/07 12:11:23;;;;;;;14.35;4.38;;;;;;;25.91;28.53;99666.38;6186941;23;20340;-86
2023/06/07 12:13:53;;;;;;;15.98;3.83;;;;;;;26.04;28.76;99647.09;6188332;23;20017;-89
2023/06/07 12:16:22;;;;;;;11.02;3.50;;;;;;;26.36;26.24;99683.34;6164999;23;20093;-86
2023/06/07 12:18:48;;;;;;;9.13;3.20;;;;;;;26.62;28.43;99667.94;6186945;23;20009;-87
2023/06/07 12:21:18;;;;;;;17.70;3.88;;;;;;;26.37;28.12;99648.47;6194594;23;20028;-88
2023/06/07 12:23:51;;;;;;;22.10;4.18;;;;;;;25.96;28.00;99637.97;6167387;23;20017;-89
2023/06/07 12:26:27;;;;;;;12.40;3.83;;;;;;;26.08;28.00;99641.47;6191642;23;20017;-87
2023/06/07 12:28:53;;;;;;;13.35;4.55;;;;;;;25.96;26.41;99592.31;6165075;23;20013;-87
2023/06/07 12:31:20;;;;;;;15.32;4.13;;;;;;;26.17;27.28;99656.63;6190987;23;20068;-89
2023/06/07 12:33:57;;;;;;;8.45;3.47;;;;;;;25.89;27.18;99666.00;6195804;23;20099;-91
2023/06/07 12:36:28;;;;;;;22.27;3.85;;;;;;;25.19;27.05;99617.47;6185521;23;20009;-87
2023/06/07 12:38:54;;;;;;;28.70;4.95;;;;;;;25.43;27.81;99644.59;6182161;23;20044;-86
2023/06/07 12:41:27;;;;;;;44.40;5.25;;;;;;;25.45;26.77;99638.56;6184649;23;20016;-87
2023/06/07 12:44:02;;;;;;;15.43;4.25;;;;;;;25.55;28.30;99632.94;6190486;23;20063;-88
2023/06/07 12:46:29;;;;;;;17.63;3.55;;;;;;;25.62;28.32;99625.69;6164038;23;20422;-88
2023/06/07 12:48:58;;;;;;;24.27;4.10;;;;;;;25.42;27.17;99617.00;6201578;23;20017;-89
2023/06/07 12:51:25;;;;;;;24.58;4.32;;;;;;;25.68;26.93;99626.88;6148871;23;20029;-90
2023/06/07 12:53:53;;;;;;;25.73;4.90;;;;;;;26.24;26.47;99645.38;6171061;23;20017;-95
2023/06/07 12:56:25;;;;;;;54.85;6.47;;;;;;;26.09;25.89;99587.81;6194542;23;20025;-91
2023/06/07 12:58:53;;;;;;;24.88;4.88;;;;;;;26.42;24.46;99661.25;6168649;23;20025;-92
2023/06/07 13:01:19;;;;;;;12.48;3.78;;;;;;;26.17;26.31;99613.81;6168714;23;20047;-89
2023/06/07 13:03:49;;;;;;;16.30;3.72;;;;;;;26.32;25.96;99608.88;6145261;23;20536;-89
2023/06/07 13:06:16;;;;;;;8.30;3.40;;;;;;;26.01;25.72;99603.91;6172938;23;20048;-89
2023/06/07 13:08:44;;;;;;;21.38;4.05;;;;;;;26.18;25.26;99633.00;6197269;23;20112;-91
2023/06/07 13:11:12;;;;;;;17.17;3.83;;;;;;;26.41;26.15;99631.63;6171022;23;20047;-89
2023/06/07 13:13:40;;;;;;;11.48;3.47;;;;;;;26.21;26.25;99611.75;6171178;23;20081;-89
2023/06/07 13:16:06;;;;;;;13.80;3.95;;;;;;;26.33;24.56;99600.06;6188097;23;20013;-86
2023/06/07 13:18:33;;;;;;;13.45;4.20;;;;;;;26.63;24.55;99640.69;6177518;23;20067;-86
2023/06/07 13:21:02;;;;;;;20.00;3.70;;;;;;;26.43;23.85;99589.97;6188990;23;20028;-86
2023/06/07 13:23:28;;;;;;;8.48;3.47;;;;;;;26.51;25.46;99604.75;6184104;23;20017;-87
2023/06/07 13:25:54;;;;;;;14.90;4.55;;;;;;;26.24;25.77;99547.28;6192741;23;20096;-91
2023/06/07 13:28:27;;;;;;;11.43;4.13;;;;;;;26.56;24.56;99596.69;6175685;23;20016;-92
2023/06/07 13:30:53;;;;;;;18.08;3.60;;;;;;;26.52;25.05;99598.72;6170843;23;20017;-92
2023/06/07 13:33:19;;;;;;;18.63;4.63;;;;;;;26.42;24.41;99600.41;6176083;23;20044;-90
2023/06/07 13:35:45;;;;;;;16.42;3.85;;;;;;;26.46;23.98;99625.59;6193193;23;20454;-92
2023/06/07 13:38:11;;;;;;;15.45;4.03;;;;;;;26.52;24.16;99614.75;6145216;23;20055;-90
2023/06/07 13:40:38;;;;;;;19.13;4.22;;;;;;;26.65;23.67;99624.22;6123128;23;20040;-90
2023/06/07 13:43:06;;;;;;;12.02;3.80;;;;;;;26.39;23.53;99573.19;6196173;23;20100;-91
2023/06/07 13:45:33;;;;;;;20.33;3.88;;;;;;;26.31;23.16;99587.66;6174563;23;20027;-90
2023/06/07 13:48:01;;;;;;;6.30;3.75;;;;;;;26.28;24.50;99577.28;6174636;23;20021;-90
2023/06/07 13:50:29;;;;;;;10.45;3.78;;;;;;;26.02;25.20;99574.66;6169927;23;20051;-90
2023/06/07 13:52:56;;;;;;;14.85;3.50;;;;;;;25.83;25.80;99575.22;6170070;23;20021;-90
2023/06/07 13:55:21;;;;;;;;;;;;;;;25.92;25.82;99620.34;6141974;23;20021;-90
2023/06/07 13:57:48;;;;;;;17.85;3.88;;;;;;;25.60;25.34;99592.53;6216035;23;19916;-92
2023/06/07 14:00:16;;;;;;;10.38;3.90;;;;;;;25.60;25.26;99572.13;6165814;23;20017;-91
2023/06/07 14:02:43;;;;;;;29.70;4.55;;;;;;;25.65;25.80;99608.88;6193554;23;20017;-90
2023/06/07 14:05:26;;;;;;;11.95;3.78;;;;;;;25.93;26.09;99607.97;6177793;23;20027;-91
2023/06/07 14:07:53;;;;;;;13.32;3.70;;;;;;;26.20;26.58;99598.97;6194644;23;20028;-90
2023/06/07 14:10:20;;;;;;;19.92;4.28;;;;;;;26.22;24.66;99588.94;6198510;23;20028;-91
2023/06/07 14:12:46;;;;;;;9.18;3.50;;;;;;;26.47;24.49;99610.34;6173056;23;20032;-91
2023/06/07 14:15:13;;;;;;;14.40;4.10;;;;;;;26.06;26.26;99594.28;6130192;23;20413;-90
2023/06/07 14:17:39;;;;;;;18.27;4.15;;;;;;;25.73;24.72;99595.66;6197116;23;20017;-91
2023/06/07 14:20:09;;;;;;;12.35;3.70;;;;;;;25.79;25.55;99557.59;6200096;23;20001;-91
2023/06/07 14:22:35;;;;;;;11.35;3.95;;;;;;;26.26;24.18;99588.91;6149474;23;20021;-91
2023/06/07 14:25:03;;;;;;;9.27;3.35;;;;;;;26.07;26.46;99558.63;6175690;23;20099;-90
2023/06/07 14:27:31;;;;;;;19.00;4.20;;;;;;;26.43;26.33;99601.97;6150033;23;20056;-90
2023/06/07 14:29:58;;;;;;;18.50;4.40;;;;;;;26.47;24.57;99594.34;6193224;23;20052;-90
2023/06/07 14:32:32;;;;;;;11.10;4.15;;;;;;;26.41;23.84;99590.38;6196228;23;20017;-91
2023/06/07 14:35:02;;;;;;;13.88;4.18;;;;;;;26.36;24.51;99584.44;6146449;23;20020;-91
2023/06/07 14:37:29;;;;;;;14.93;4.28;;;;;;;26.59;24.29;99589.44;6150156;23;20025;-90
2023/06/07 14:40:00;;;;;;;8.40;3.65;;;;;;;26.47;24.44;99573.91;6172357;23;20037;-88
2023/06/07 14:42:30;;;;;;;14.10;4.63;;;;;;;26.57;25.57;99594.69;6177616;23;20017;-91
2023/06/07 14:44:57;;;;;;;11.23;3.88;;;;;;;26.51;25.89;99585.91;6173145;23;20017;-89
2023/06/07 14:47:24;;;;;;;10.75;3.65;;;;;;;26.24;26.22;99572.50;6176986;23;20043;-90
2023/06/07 14:49:51;;;;;;;14.18;4.35;;;;;;;26.38;25.05;99596.00;6145055;23;20017;-91
2023/06/07 14:52:19;;;;;;;18.45;4.47;;;;;;;26.53;24.38;99589.09;6199940;23;20021;-90
2023/06/07 14:54:45;;;;;;;12.43;4.03;;;;;;;26.46;25.27;99589.94;6171179;23;20013;-89
2023/06/07 14:57:12;;;;;;;9.60;4.10;;;;;;;26.25;24.75;99585.28;6173651;23;20021;-90
2023/06/07 14:59:39;;;;;;;12.45;3.80;;;;;;;26.29;25.13;99590.91;6197696;23;20017;-92
2023/06/07 15:02:31;;;;;;;14.95;3.92;;;;;;;26.19;24.54;99600.97;6149290;23;20013;-91
2023/06/07 15:04:59;;;;;;;12.50;4.50;;;;;;;25.68;26.34;99582.06;6203234;23;20009;-91
2023/06/07 15:07:30;;;;;;;15.88;4.53;;;;;;;25.46;25.53;99584.19;6152690;23;20063;-89
2023/06/07 15:09:59;;;;;;;14.52;4.57;;;;;;;25.31;26.17;99570.25;6199706;23;20000;-90
2023/06/07 15:12:28;;;;;;;15.07;4.47;;;;;;;25.25;26.50;99611.06;6174468;23;20028;-89
2023/06/07 15:14:54;;;;;;;9.68;3.83;;;;;;;24.71;25.71;99559.25;6151343;23;20400;-92
2023/06/07 15:17:21;;;;;;;18.80;3.88;;;;;;;25.08;26.55;99618.28;6202834;23;20013;-92
2023/06/07 15:19:47;;;;;;;16.30;4.90;;;;;;;25.25;27.25;99579.50;6173165;23;20089;-94
2023/06/07 15:22:14;;;;;;;28.83;3.72;;;;;;;25.07;27.29;99594.31;6197877;23;20021;-91
2023/06/07 15:24:43;;;;;;;12.65;4.07;;;;;;;24.81;26.88;99597.59;6174955;23;20032;-91
2023/06/07 15:27:09;;;;;;;9.35;4.20;;;;;;;24.54;26.59;99580.47;6197088;23;20025;-90
2023/06/07 15:29:37;;;;;;;13.38;3.90;;;;;;;24.49;27.22;99600.41;6154385;23;20029;-92
2023/06/07 15:32:04;;;;;;;8.23;3.60;;;;;;;24.33;26.74;99575.63;6176051;23;20021;-91
2023/06/07 15:34:37;;;;;;;11.93;3.72;;;;;;;24.45;29.22;99606.00;6201057;23;20020;-91
2023/06/07 15:37:06;;;;;;;10.90;3.78;;;;;;;24.29;27.36;99608.38;6178536;23;20012;-90
2023/06/07 15:39:34;;;;;;;7.80;3.92;;;;;;;23.98;28.07;99560.47;6155789;23;20039;-93
2023/06/07 15:42:02;;;;;;;8.68;3.85;;;;;;;24.03;28.54;99590.78;6205249;23;20021;-90
2023/06/07 15:44:32;;;;;;;29.45;4.38;;;;;;;24.06;29.74;99594.78;6205041;23;20013;-92
2023/06/07 15:47:10;;;;;;;14.80;4.00;;;;;;;23.85;27.68;99578.81;6132615;23;20402;-91
2023/06/07 15:49:36;;;;;;;12.90;4.68;;;;;;;23.97;28.60;99599.94;6180510;23;20024;-91
2023/06/07 15:52:04;;;;;;;16.25;4.20;;;;;;;23.80;28.54;99595.94;6176071;23;20020;-92
2023/06/07 15:54:30;;;;;;;10.80;4.10;;;;;;;23.81;28.42;99620.69;6158414;23;20025;-92
2023/06/07 15:57:00;;;;;;;15.77;4.68;;;;;;;23.62;28.81;99588.28;6181222;23;20079;-91
2023/06/07 15:59:27;;;;;;;10.75;4.30;;;;;;;23.62;29.55;99605.03;6179609;23;20052;-94
2023/06/07 16:02:15;;;;;;;19.60;4.10;;;;;;;23.62;30.02;99605.03;6160433;23;20025;-91
2023/06/07 16:04:47;;;;;;;21.80;4.28;;;;;;;23.68;28.94;99614.66;6209821;23;20037;-92
2023/06/07 16:07:16;;;;;;;23.95;4.70;;;;;;;23.24;29.15;99573.00;6136924;23;20005;-93
2023/06/07 16:09:46;;;;;;;19.98;4.90;;;;;;;23.41;31.03;99619.72;6092264;23;20021;-92
2023/06/07 16:12:20;;;;;;;28.45;4.80;;;;;;;23.28;32.92;99618.47;6159863;23;20039;-92
2023/06/07 16:14:59;;;;;;;21.83;3.90;;;;;;;22.71;34.62;99577.09;6174180;23;20025;-91
2023/06/07 16:17:27;;;;;;;12.82;4.40;;;;;;;22.72;35.59;99628.88;6178656;23;20066;-92
2023/06/07 16:19:54;;;;;;;17.65;4.63;;;;;;;22.41;35.96;99613.47;6132516;23;20002;-91
2023/06/07 16:22:23;;;;;;;24.33;5.18;;;;;;;22.34;37.45;99629.34;6181223;23;20045;-91
2023/06/07 16:24:56;;;;;;;14.68;4.53;;;;;;;22.24;39.25;99650.34;6178608;23;20013;-92
2023/06/07 16:28:49;;;;;;;24.02;4.75;;;;;;;21.80;42.92;99623.22;6164529;23;20060;-91
2023/06/07 16:32:12;;;;;;;21.15;4.63;;;;;;;21.80;42.75;99642.72;6129394;23;20029;-93
2023/06/07 16:40:58;;;;;;;17.73;3.90;;;;;;;21.01;45.22;99682.56;6265907;22;20343;-89
2023/06/07 16:46:57;;;;;;;15.07;5.25;;;;;;;20.42;48.89;99663.34;6179552;23;20029;-91
2023/06/07 16:56:18;;;;;;;12.48;4.85;;;;;;;20.07;51.72;99662.75;6176200;23;20028;-94
2023/06/07 16:58:47;;;;;;;11.85;4.97;;;;;;;19.87;52.79;99646.13;6108883;23;20031;-93
2023/06/07 17:01:39;;;;;;;12.68;4.38;;;;;;;19.55;55.17;99589.19;6125563;23;20022;-92
2023/06/07 17:04:11;;;;;;;11.02;5.35;;;;;;;19.72;54.40;99633.13;6131036;23;20024;-91
2023/06/07 17:06:51;;;;;;;9.77;4.60;;;;;;;19.64;57.34;99631.41;6123658;23;20028;-92
2023/06/07 17:09:22;;;;;;;10.75;4.55;;;;;;;19.75;58.54;99660.16;6123824;23;20025;-88
2023/06/07 17:11:53;;;;;;;17.40;5.22;;;;;;;19.45;59.08;99646.84;6142840;23;20049;-90
2023/06/07 17:14:20;;;;;;;13.77;5.97;;;;;;;19.33;59.00;99704.38;6145710;23;20025;-91
2023/06/07 17:16:51;;;;;;;7.55;3.72;;;;;;;19.85;54.82;99730.88;6143657;23;20024;-91
2023/06/07 17:19:17;;;;;;;13.50;4.28;;;;;;;20.24;53.64;99750.28;6170758;23;20022;-91
2023/06/07 17:21:44;;;;;;;12.07;4.20;;;;;;;20.03;54.35;99720.13;6147426;23;20025;-90
2023/06/07 17:24:13;;;;;;;15.55;4.82;;;;;;;20.15;54.92;99750.50;6092199;23;20022;-89
2023/06/07 17:26:55;;;;;;;14.18;4.65;;;;;;;19.71;55.82;99710.00;6103933;23;20026;-89
2023/06/07 17:29:47;;;;;;;11.65;4.10;;;;;;;19.80;55.81;99756.97;6099243;23;20053;-93
2023/06/07 17:32:25;;;;;;;14.85;4.35;;;;;;;19.37;57.97;99663.69;6099092;23;20022;-89
2023/06/07 17:35:49;;;;;;;10.48;4.00;;;;;;;19.45;60.90;99707.03;6120270;23;20022;-89
2023/06/07 17:38:16;;;;;;;12.30;4.80;;;;;;;18.76;63.94;99645.69;6093282;23;20018;-87
2023/06/07 17:40:43;;;;;;;12.43;4.37;;;;;;;19.00;64.92;99689.78;6090067;23;20253;-88
2023/06/07 17:43:10;;;;;;;7.25;4.97;;;;;;;18.90;67.75;99687.56;6095780;23;20026;-88
2023/06/07 17:45:49;;;;;;;13.88;5.07;;;;;;;18.55;68.25;99644.00;6094720;23;20026;-89
2023/06/07 17:49:15;;;;;;;9.07;5.18;;;;;;;18.75;68.93;99683.69;6127082;23;20057;-88
2023/06/07 17:52:18;;;;;;;;;;;;;;;18.66;69.33;99704.38;6125590;23;20002;-89
2023/06/07 17:54:46;;;;;;;16.48;6.43;;;;;;;18.48;69.59;99698.41;6120101;23;19917;-91
2023/06/07 17:57:14;;;;;;;22.05;10.50;;;;;;;18.37;70.39;99714.72;6093906;23;20015;-88
2023/06/07 17:59:44;;;;;;;25.25;11.73;;;;;;;18.17;70.94;99716.56;6117422;23;20074;-88
2023/06/07 18:02:10;;;;;;;19.35;10.68;;;;;;;18.36;69.72;99709.53;6092097;23;20026;-89
2023/06/07 18:04:59;;;;;;;16.45;8.23;;;;;;;18.33;65.03;99710.25;6074277;23;20464;-89
2023/06/07 18:07:25;;;;;;;16.38;7.10;;;;;;;18.05;63.17;99645.50;6006663;23;20080;-88
2023/06/07 18:09:54;;;;;;;13.57;6.47;;;;;;;18.13;65.55;99668.63;6008370;23;20020;-91
2023/06/07 18:12:20;;;;;;;11.18;5.63;;;;;;;18.27;63.18;99699.44;5991319;23;20031;-92
2023/06/07 18:14:49;;;;;;;9.23;5.00;;;;;;;17.85;64.24;99654.84;5994210;23;20031;-91
2023/06/07 18:17:16;;;;;;;14.55;4.95;;;;;;;18.16;64.35;99708.63;6012388;23;20517;-87
2023/06/07 18:19:45;;;;;;;11.77;5.00;;;;;;;17.96;63.96;99672.53;5994379;23;20079;-89
2023/06/07 18:22:16;;;;;;;13.27;5.00;;;;;;;17.97;61.70;99685.19;6001526;23;20020;-92
2023/06/07 18:24:43;;;;;;;16.00;5.13;;;;;;;17.97;62.08;99690.72;6024271;23;20023;-91
2023/06/07 18:27:24;;;;;;;11.35;4.97;;;;;;;17.76;62.26;99655.00;6024895;23;20014;-90
2023/06/07 18:29:50;;;;;;;16.55;5.20;;;;;;;17.80;62.07;99668.91;6023750;23;20048;-91
2023/06/07 18:32:17;;;;;;;11.47;5.30;;;;;;;17.77;63.70;99653.81;6029895;23;20004;-90
2023/06/07 18:34:46;;;;;;;10.82;5.00;;;;;;;17.75;60.74;99660.84;6008019;23;20011;-90
2023/06/07 18:37:13;;;;;;;9.90;5.03;;;;;;;18.02;59.94;99701.53;6019043;23;20019;-91
2023/06/07 18:39:39;;;;;;;7.13;5.07;;;;;;;18.15;62.24;99720.84;5988328;23;20043;-90
2023/06/07 18:42:07;;;;;;;13.02;6.32;;;;;;;18.12;60.39;99713.25;6020124;23;20424;-92
2023/06/07 18:44:33;;;;;;;19.92;7.68;;;;;;;17.83;62.79;99685.59;6061270;23;20027;-92
2023/06/07 18:47:06;;;;;;;17.10;7.25;;;;;;;17.76;61.03;99663.28;6140134;23;20135;-93
2023/06/07 18:49:34;;;;;;;21.35;9.40;;;;;;;18.08;62.88;99713.16;6087782;23;20033;-91
2023/06/07 18:52:06;;;;;;;19.13;8.77;;;;;;;17.66;65.96;99671.25;6109338;23;20091;-91
2023/06/07 18:54:32;;;;;;;17.38;8.23;;;;;;;17.84;66.02;99714.06;6106367;23;20022;-89
2023/06/07 18:57:12;;;;;;;17.00;8.25;;;;;;;17.84;67.49;99719.59;6063249;23;20056;-92
2023/06/07 18:59:40;;;;;;;20.20;9.10;;;;;;;17.49;68.19;99677.88;6118464;23;20058;-91